Aérodrome :
LOGIN :

S'inscrire | Disclaimer

   EN    FR    IT 

 










Légende :    VFR   VFR Marginal   IFR   IFR Intensif   IFR Très Intensif
Visi : 
Plafond : 
>= 8 km
>= 3000ft
5 à 8 km
1000 à 3000 ft
1500m à 5 km
500 à 1000 ft
800 à 1500m
200 à 500 ft
< 800m
< 200 ft
Symboles :   Orages  Brouillard  Fortes neiges  Fortes précipitations  Vent > 20 kt
SIGMETs :   Divers  Orages  Givrage  Turbulence  Onde Orograph.  Cendres Volcan.






- Altitude de l'aérodrome : 308 ft
- Code IATA : POZ


EPPO - Poznan-Lawica

DERNIER METAR :
  • 060230Z 22004KT 9999 BKN041 20/17 Q1008

METARs EXPIRÉS :
  • 060200Z 24003KT 9999 BKN042 20/17 Q1008
  • 060130Z 24004KT 9999 SCT043 20/16 Q1008
  • 060100Z 26006KT 9999 BKN041 21/17 Q1008
  • 060030Z 21003KT 9999 BKN039 20/18 Q1008
  • 060000Z 22003KT 9999 FEW033 SCT039 21/17 Q1008

TAF TAF EPPO
Valide du 06 à 00h jusqu'au 07 à 00h UTC


052330Z 0600/0624 28005KT 9999 BKN035
TEMPO 0600/0607 SHRA BKN008 BKN014CB
BECMG 0607/0609 27018G30KT
TEMPO 0609/0618 BKN033TCU
BECMG 0616/0619 28012KT



MET'MAP, la Météo Aéronautique d'un coup d'oeil ! - Copyright ORBIFLY Décembre 2007 - Disclaimer

ORBIFLY MET'MAP TEAM :

Programmation & Développement : Alexandra Zaïnal
Sur une idée originale de : Baudouin d'Aumeries
Assistance à la programmation : Marc-Olivier Méhu
Soutien technique & logistique : Manuel Goepfert

Contact : metmap@orbifly.com




SOURCES & CREDITS :

   NOAA